Time;durP1;ratioP1;P1;durP2;ratioP2;P2;SDS_P1;SDS_P2;PMS_P1;PMS_P2;Temp;Humidity;BMP_temperature;BMP_pressure;BME280_temperature;BME280_humidity;BME280_pressure;Samples;Min_cycle;Max_cycle;Signal;HPM_P1;HPM_P2
2023/10/14 00:04:38;;;;;;;23.58;13.45;;;;;;;18.03;100.00;101002.75;4778635;30;20555;-64
2023/10/14 00:07:08;;;;;;;21.40;13.77;;;;;;;17.91;100.00;100998.66;4780552;30;20059;-64
2023/10/14 00:09:43;;;;;;;22.98;13.45;;;;;;;17.96;100.00;100998.50;4780106;30;20067;-65
2023/10/14 00:12:14;;;;;;;22.35;14.25;;;;;;;17.92;100.00;100994.72;4780227;30;20063;-66
2023/10/14 00:14:46;;;;;;;25.40;13.95;;;;;;;17.89;100.00;100987.06;4778733;30;20074;-67
2023/10/14 00:17:18;;;;;;;24.27;14.30;;;;;;;17.87;100.00;100975.50;4780072;30;20059;-64
2023/10/14 00:19:50;;;;;;;27.10;15.80;;;;;;;17.72;100.00;100980.34;4779973;30;20055;-66
2023/10/14 00:22:18;;;;;;;23.70;13.73;;;;;;;17.68;100.00;100975.75;4780231;30;20067;-64
2023/10/14 00:24:48;;;;;;;25.88;15.10;;;;;;;17.73;100.00;100986.66;4777662;30;20506;-65
2023/10/14 00:27:17;;;;;;;25.63;14.27;;;;;;;17.62;100.00;100975.06;4778029;30;20059;-65
2023/10/14 00:29:45;;;;;;;25.80;14.90;;;;;;;17.68;100.00;100970.19;4764130;30;20070;-65
2023/10/14 00:32:13;;;;;;;23.75;15.07;;;;;;;17.75;100.00;100964.22;4779611;30;20060;-64
2023/10/14 00:34:42;;;;;;;27.13;15.82;;;;;;;17.80;100.00;100964.06;4768006;30;20067;-65
2023/10/14 00:37:11;;;;;;;24.15;14.82;;;;;;;17.78;100.00;100969.13;4779229;29;20059;-65
2023/10/14 00:39:39;;;;;;;25.73;14.57;;;;;;;17.74;100.00;100966.16;4780013;30;20067;-65
2023/10/14 00:42:08;;;;;;;26.50;15.07;;;;;;;17.55;100.00;100955.34;4762712;30;20489;-65
2023/10/14 00:44:38;;;;;;;24.95;14.48;;;;;;;17.53;100.00;100954.84;4761644;30;20059;-65
2023/10/14 00:47:15;;;;;;;23.35;13.80;;;;;;;17.45;100.00;100950.91;4762511;30;20067;-65
2023/10/14 00:49:45;;;;;;;23.38;15.07;;;;;;;17.42;100.00;100941.31;4779906;30;20063;-65
2023/10/14 00:52:18;;;;;;;24.92;15.50;;;;;;;17.36;100.00;100934.28;4762590;30;20907;-65
2023/10/14 00:57:21;;;;;;;24.88;13.00;;;;;;;17.45;100.00;100931.53;4778826;30;20059;-65
2023/10/14 00:59:53;;;;;;;28.75;15.15;;;;;;;17.44;100.00;100927.13;4779363;30;20055;-65
2023/10/14 01:02:31;;;;;;;26.42;14.55;;;;;;;17.43;100.00;100928.25;4761338;30;20059;-65
2023/10/14 01:05:13;;;;;;;24.15;14.38;;;;;;;17.43;100.00;100925.50;4777281;30;20742;-65
2023/10/14 01:07:41;;;;;;;25.98;13.48;;;;;;;17.35;100.00;100932.63;4777902;30;20066;-65
2023/10/14 01:10:13;;;;;;;24.90;13.95;;;;;;;17.32;100.00;100923.00;4763298;30;20537;-65
2023/10/14 01:12:45;;;;;;;24.08;14.50;;;;;;;17.33;100.00;100915.53;4778153;30;20637;-65
2023/10/14 01:15:23;;;;;;;25.63;14.85;;;;;;;17.23;100.00;100910.25;4777593;30;20142;-65
2023/10/14 01:17:54;;;;;;;28.95;15.52;;;;;;;17.18;100.00;100906.53;4777403;30;20062;-65
2023/10/14 01:23:06;;;;;;;26.95;15.07;;;;;;;17.15;100.00;100890.56;4776993;30;20063;-64
2023/10/14 01:25:41;;;;;;;;;;;;;;;17.22;100.00;100900.34;4777114;30;20487;-65
2023/10/14 01:28:12;;;;;;;22.33;13.48;;;;;;;17.35;100.00;100901.38;4761597;30;19933;-65
2023/10/14 01:33:52;;;;;;;24.27;14.43;;;;;;;17.29;100.00;100887.69;4776761;30;20062;-65
2023/10/14 01:36:24;;;;;;;23.60;14.52;;;;;;;17.24;100.00;100892.53;4778562;30;20067;-65
2023/10/14 01:38:58;;;;;;;24.05;14.20;;;;;;;17.15;100.00;100890.56;4777076;30;20058;-64
2023/10/14 01:41:29;;;;;;;;;;;;;;;17.12;100.00;100876.53;4778283;30;20404;-64
2023/10/14 01:43:59;;;;;;;27.75;14.00;;;;;;;17.00;100.00;100875.16;4778112;29;19933;-65
2023/10/14 01:46:27;;;;;;;24.83;14.70;;;;;;;16.98;100.00;100873.84;4779491;29;20491;-65
2023/10/14 01:48:55;;;;;;;25.92;14.82;;;;;;;16.98;100.00;100873.84;4776895;30;20055;-65
2023/10/14 01:51:25;;;;;;;24.63;14.48;;;;;;;16.98;100.00;100873.84;4778453;30;20062;-65
2023/10/14 01:53:55;;;;;;;25.88;15.13;;;;;;;16.92;100.00;100865.66;4777086;30;20119;-65
2023/10/14 01:56:22;;;;;;;26.55;14.20;;;;;;;16.93;100.00;100872.81;4778175;30;20553;-65
2023/10/14 01:58:57;;;;;;;25.80;15.38;;;;;;;16.87;100.00;100863.03;4774685;29;20077;-65
2023/10/14 02:01:27;;;;;;;30.10;15.20;;;;;;;16.83;100.00;100851.00;4762647;30;20039;-65
2023/10/14 02:03:56;;;;;;;22.48;13.10;;;;;;;16.82;100.00;100848.53;4776910;30;20129;-67
2023/10/14 02:06:27;;;;;;;25.58;14.63;;;;;;;16.82;100.00;100852.13;4763602;29;20063;-65
2023/10/14 02:09:05;;;;;;;25.55;14.30;;;;;;;16.75;100.00;100849.81;4776348;30;20056;-64
2023/10/14 02:11:34;;;;;;;26.52;15.02;;;;;;;16.70;100.00;100847.16;4777490;30;20056;-64
2023/10/14 02:14:07;;;;;;;26.52;13.77;;;;;;;16.73;100.00;100843.78;4761576;29;20067;-64
2023/10/14 02:16:43;;;;;;;23.98;14.95;;;;;;;16.70;100.00;100843.56;4778618;30;20064;-64
2023/10/14 02:19:36;;;;;;;23.23;13.95;;;;;;;16.64;100.00;100829.91;4762153;30;20071;-64
2023/10/14 02:22:11;;;;;;;25.55;13.73;;;;;;;16.78;100.00;100837.31;4778126;29;20074;-64
2023/10/14 02:24:40;;;;;;;27.95;14.52;;;;;;;17.08;100.00;100829.38;4777051;30;20098;-64
2023/10/14 02:27:11;;;;;;;22.05;14.18;;;;;;;17.21;100.00;100829.56;4760113;30;20063;-64
2023/10/14 02:29:46;;;;;;;25.50;14.52;;;;;;;16.92;100.00;100823.41;4762248;30;20047;-64
2023/10/14 02:32:20;;;;;;;26.60;15.52;;;;;;;16.84;100.00;100830.50;4776913;30;20066;-64
2023/10/14 02:34:50;;;;;;;22.40;13.55;;;;;;;16.92;100.00;100821.44;4774995;30;20062;-64
2023/10/14 02:37:20;;;;;;;22.73;14.00;;;;;;;16.92;100.00;100818.69;4761860;30;20051;-65
2023/10/14 02:39:50;;;;;;;28.08;16.25;;;;;;;16.65;100.00;100826.03;4777752;30;20063;-64
2023/10/14 02:42:20;;;;;;;24.73;14.02;;;;;;;16.52;100.00;100816.66;4778565;29;20059;-64
2023/10/14 02:44:51;;;;;;;25.80;13.30;;;;;;;16.46;100.00;100815.16;4776533;30;20078;-65
2023/10/14 02:47:27;;;;;;;23.83;14.18;;;;;;;16.50;100.00;100815.34;4775823;30;20070;-64
2023/10/14 02:50:04;;;;;;;21.77;13.63;;;;;;;16.57;100.00;100817.69;4760582;30;20411;-65
2023/10/14 02:52:38;;;;;;;22.50;13.20;;;;;;;16.54;100.00;100813.59;4776979;30;20067;-65
2023/10/14 02:55:27;;;;;;;26.85;14.30;;;;;;;16.49;100.00;100810.97;4760156;30;20063;-65
2023/10/14 02:57:55;;;;;;;24.83;14.00;;;;;;;16.42;100.00;100814.16;4776557;30;20062;-65
2023/10/14 03:00:30;;;;;;;21.17;14.00;;;;;;;16.34;100.00;100812.16;4761342;30;20063;-65
2023/10/14 03:03:13;;;;;;;29.08;15.05;;;;;;;16.29;100.00;100815.88;4764645;30;20059;-65
2023/10/14 03:05:52;;;;;;;26.00;14.35;;;;;;;16.21;100.00;100813.84;4764170;30;20067;-65
2023/10/14 03:08:21;;;;;;;23.70;13.80;;;;;;;16.21;100.00;100811.91;4780268;30;20048;-64
2023/10/14 03:10:55;;;;;;;24.50;15.15;;;;;;;16.24;100.00;100807.69;4778919;30;20055;-65
2023/10/14 03:13:24;;;;;;;22.30;13.95;;;;;;;16.15;100.00;100806.81;4780018;30;20070;-65
2023/10/14 03:15:56;;;;;;;27.20;14.55;;;;;;;16.15;100.00;100798.50;4779161;30;20430;-65
2023/10/14 03:18:37;;;;;;;26.23;13.63;;;;;;;16.10;100.00;100808.56;4779218;30;20728;-64
2023/10/14 03:21:23;;;;;;;26.55;13.13;;;;;;;16.07;100.00;100792.63;4780743;30;20110;-64
2023/10/14 03:23:51;;;;;;;25.10;13.67;;;;;;;15.98;100.00;100794.47;4763179;30;20058;-64
2023/10/14 03:26:20;;;;;;;22.92;13.38;;;;;;;15.92;100.00;100802.06;4781123;30;20319;-64
2023/10/14 03:28:50;;;;;;;24.98;13.82;;;;;;;15.95;100.00;100798.69;4781066;30;20056;-64
2023/10/14 03:31:24;;;;;;;22.60;12.73;;;;;;;15.92;100.00;100795.69;4779959;30;20059;-64
2023/10/14 03:33:58;;;;;;;24.48;14.32;;;;;;;15.84;100.00;100798.06;4777112;30;20059;-64
2023/10/14 03:36:29;;;;;;;31.17;14.82;;;;;;;15.71;100.00;100794.22;4779013;30;20054;-64
2023/10/14 03:39:15;;;;;;;27.40;14.63;;;;;;;15.71;100.00;100796.16;4779093;30;20411;-64
2023/10/14 03:41:43;;;;;;;26.38;14.10;;;;;;;15.64;100.00;100795.78;4780436;29;20063;-64
2023/10/14 03:44:14;;;;;;;25.88;14.30;;;;;;;15.67;100.00;100789.63;4778561;30;20125;-64
2023/10/14 03:46:43;;;;;;;23.85;13.50;;;;;;;15.66;100.00;100783.31;4780268;29;20074;-64
2023/10/14 03:49:12;;;;;;;25.23;13.55;;;;;;;15.68;100.00;100782.97;4780575;29;20055;-64
2023/10/14 03:51:40;;;;;;;26.60;14.70;;;;;;;15.67;100.00;100773.06;4780407;30;20112;-64
2023/10/14 03:54:08;;;;;;;25.52;14.18;;;;;;;15.72;100.00;100784.00;4778927;30;20059;-66
2023/10/14 03:56:44;;;;;;;22.05;12.32;;;;;;;15.74;100.00;100780.94;4780221;30;20574;-64
2023/10/14 03:59:23;;;;;;;25.23;13.00;;;;;;;15.67;100.00;100770.31;4780818;29;20063;-64
2023/10/14 04:02:15;;;;;;;23.40;13.20;;;;;;;15.65;100.00;100775.34;4780040;29;20051;-64
2023/10/14 04:04:43;;;;;;;25.40;14.07;;;;;;;15.66;100.00;100774.19;4779159;30;20059;-64
2023/10/14 04:10:04;;;;;;;24.75;14.75;;;;;;;15.55;100.00;100768.09;4779493;30;20875;-64
2023/10/14 04:15:24;;;;;;;27.73;15.32;;;;;;;15.57;100.00;100769.44;4777469;30;20071;-64
2023/10/14 04:17:58;;;;;;;25.13;14.32;;;;;;;15.57;100.00;100769.44;4780071;30;20063;-64
2023/10/14 04:20:31;;;;;;;23.42;13.73;;;;;;;15.53;100.00;100759.31;4778258;30;20055;-64
2023/10/14 04:23:05;;;;;;;26.77;14.00;;;;;;;15.52;100.00;100754.91;4778774;30;20582;-64
2023/10/14 04:25:42;;;;;;;25.25;13.50;;;;;;;15.54;100.00;100756.25;4777802;30;20055;-65
2023/10/14 04:30:44;;;;;;;23.08;13.10;;;;;;;15.41;100.00;100749.63;4779934;30;20062;-65
2023/10/14 04:38:38;;;;;;;24.80;13.18;;;;;;;15.52;100.00;100752.16;4779075;30;20074;-65
2023/10/14 04:41:23;;;;;;;26.98;14.68;;;;;;;15.46;100.00;100743.19;4779063;30;20051;-65
2023/10/14 04:44:00;;;;;;;23.13;13.32;;;;;;;15.51;100.00;100748.59;4776879;30;20101;-66
2023/10/14 04:46:46;;;;;;;22.63;13.70;;;;;;;15.34;100.00;100748.44;4777997;30;20047;-65
2023/10/14 04:49:16;;;;;;;25.02;13.65;;;;;;;15.23;100.00;100747.81;4778145;30;20071;-65
2023/10/14 04:51:47;;;;;;;25.92;13.32;;;;;;;15.20;100.00;100749.22;4779490;30;20549;-64
2023/10/14 04:54:19;;;;;;;24.13;13.18;;;;;;;15.20;100.00;100746.47;4777247;30;20067;-65
2023/10/14 04:56:48;;;;;;;24.80;13.23;;;;;;;15.23;100.00;100745.88;4779374;29;20058;-65
2023/10/14 04:59:24;;;;;;;23.10;13.35;;;;;;;15.32;100.00;100749.53;4779082;30;20067;-65
2023/10/14 05:01:55;;;;;;;23.65;13.65;;;;;;;15.34;100.00;100743.72;4778519;30;20063;-65
2023/10/14 05:04:29;;;;;;;23.55;13.07;;;;;;;15.31;100.00;100736.06;4776172;30;20055;-65
2023/10/14 05:07:03;;;;;;;24.10;13.38;;;;;;;15.32;100.00;100741.25;4777784;30;20529;-65
2023/10/14 05:09:39;;;;;;;25.52;12.93;;;;;;;15.34;100.00;100740.16;4778093;30;20059;-65
2023/10/14 05:12:08;;;;;;;26.42;14.70;;;;;;;15.29;100.00;100733.63;4778385;30;20624;-65
2023/10/14 05:14:39;;;;;;;24.75;14.60;;;;;;;15.48;100.00;100734.63;4777404;30;20067;-65
2023/10/14 05:19:42;;;;;;;27.15;14.23;;;;;;;15.74;100.00;100745.88;4778835;30;20570;-65
2023/10/14 05:22:23;;;;;;;26.20;13.70;;;;;;;15.69;100.00;100735.78;4778503;30;20055;-65
2023/10/14 05:24:55;;;;;;;22.95;13.38;;;;;;;15.68;100.00;100747.13;4776214;30;20059;-65
2023/10/14 05:27:35;;;;;;;23.27;12.75;;;;;;;15.55;100.00;100743.28;4776458;30;20079;-65
2023/10/14 05:30:07;;;;;;;24.85;12.75;;;;;;;15.58;100.00;100743.47;4777844;30;20073;-65
2023/10/14 05:32:36;;;;;;;25.50;13.65;;;;;;;15.40;100.00;100749.94;4777582;30;20431;-65
2023/10/14 05:35:09;;;;;;;28.23;14.73;;;;;;;15.35;100.00;100739.81;4777018;30;20065;-65
